Terminal Aerodrome Forecast
Issued by NWS

Home | Current Version | Previous Version | Text Only | Print | Product List | Glossary Off
Versions: 1 2 3 4 5 6 7 8 9 10 11 12 13 14 15 16 17 18 19

753
FTUS43 KMPX 242339
TAFAXN
TAF
KAXN 242339Z 2500/2524 13003KT P6SM BKN250
     FM251400 12011G17KT 5SM -SHRA VCTS OVC050CB
     FM251800 13014G21KT P6SM OVC050=

USA.gov is the U.S. government's official web portal to all federal, state and local government web resources and services.